createdAt,value
2023-04-16T00:01:29.164Z,11.33
2023-04-16T00:03:56.089Z,11.50
2023-04-16T00:06:23.321Z,11.80
2023-04-16T00:08:51.609Z,11.87
2023-04-16T00:11:18.396Z,10.63
2023-04-16T00:13:45.174Z,11.60
2023-04-16T00:16:11.882Z,11.10
2023-04-16T00:18:39.471Z,12.07
2023-04-16T00:21:07.357Z,11.50
2023-04-16T00:23:34.328Z,11.40
2023-04-16T00:26:01.144Z,12.47
2023-04-16T00:28:28.051Z,11.70
2023-04-16T00:30:55.578Z,11.30
2023-04-16T00:33:23.764Z,11.30
2023-04-16T00:35:51.251Z,12.37
2023-04-16T00:38:18.150Z,10.20
2023-04-16T00:40:44.950Z,11.23
2023-04-16T00:43:11.618Z,10.40
2023-04-16T00:45:38.802Z,10.97
2023-04-16T00:48:06.383Z,9.30
2023-04-16T00:50:33.815Z,11.27
2023-04-16T00:53:02.030Z,10.70
2023-04-16T00:55:28.963Z,10.50
2023-04-16T00:57:55.699Z,11.40
2023-04-16T01:00:22.623Z,10.77
2023-04-16T01:02:49.497Z,10.00
2023-04-16T01:05:16.577Z,10.20
2023-04-16T01:07:43.418Z,10.17
2023-04-16T01:10:10.533Z,10.90
2023-04-16T01:12:37.289Z,9.93
2023-04-16T01:15:04.451Z,10.13
2023-04-16T01:17:31.225Z,10.30
2023-04-16T01:20:01.040Z,10.20
2023-04-16T01:22:29.028Z,10.80
2023-04-16T01:24:55.861Z,10.87
2023-04-16T01:27:22.604Z,9.80
2023-04-16T01:29:49.427Z,10.83
2023-04-16T01:32:16.354Z,10.33
2023-04-16T01:34:43.195Z,10.13
2023-04-16T01:37:09.920Z,9.40
2023-04-16T01:39:36.768Z,9.27
2023-04-16T01:42:03.564Z,9.60
2023-04-16T01:44:30.987Z,9.30
2023-04-16T01:46:57.990Z,8.67
2023-04-16T01:49:25.075Z,8.53
2023-04-16T01:51:51.813Z,8.50
2023-04-16T01:54:18.577Z,9.33
2023-04-16T01:56:45.380Z,10.20
2023-04-16T01:59:12.407Z,8.43
2023-04-16T02:01:39.691Z,8.40
2023-04-16T02:04:07.454Z,8.50
2023-04-16T02:06:34.219Z,8.10
2023-04-16T02:09:01.034Z,7.93
2023-04-16T02:11:27.752Z,8.13
2023-04-16T02:13:54.444Z,8.33
2023-04-16T02:16:21.132Z,8.23
2023-04-16T02:18:47.820Z,8.90
2023-04-16T02:21:14.535Z,8.20
2023-04-16T02:23:41.492Z,8.43
2023-04-16T02:26:08.267Z,8.60
2023-04-16T02:28:35.028Z,8.93
2023-04-16T02:31:01.783Z,8.60
2023-04-16T02:33:28.728Z,9.10
2023-04-16T02:35:55.438Z,8.43
2023-04-16T02:38:22.240Z,8.73
2023-04-16T02:40:48.979Z,9.47
2023-04-16T02:43:15.748Z,8.97
2023-04-16T02:45:42.586Z,7.73
2023-04-16T02:48:09.706Z,10.00
2023-04-16T02:50:36.436Z,9.40
2023-04-16T02:53:04.258Z,9.10
2023-04-16T02:55:31.109Z,9.60
2023-04-16T02:57:57.893Z,9.60
2023-04-16T03:00:24.687Z,10.00
2023-04-16T03:02:51.635Z,10.00
2023-04-16T03:05:18.667Z,9.93
2023-04-16T03:07:45.429Z,9.87
2023-04-16T03:10:13.375Z,10.30
2023-04-16T03:12:40.083Z,10.30
2023-04-16T03:15:07.236Z,10.20
2023-04-16T03:17:34.194Z,9.13
2023-04-16T03:20:00.934Z,9.33
2023-04-16T03:22:27.717Z,8.83
2023-04-16T03:24:54.503Z,9.00
2023-04-16T03:27:21.218Z,9.40
2023-04-16T03:29:47.993Z,9.47
2023-04-16T03:32:14.690Z,11.00
2023-04-16T03:34:41.447Z,10.03
2023-04-16T03:37:11.886Z,9.43
2023-04-16T03:39:39.173Z,9.57
2023-04-16T03:42:06.133Z,9.20
2023-04-16T03:44:33.004Z,9.90
2023-04-16T03:46:59.973Z,9.60
2023-04-16T03:49:26.679Z,10.37
2023-04-16T03:51:53.483Z,10.33
2023-04-16T03:54:22.568Z,11.00
2023-04-16T03:56:49.911Z,10.90
2023-04-16T03:59:16.664Z,10.40
2023-04-16T04:01:43.339Z,11.60
2023-04-16T04:04:10.593Z,11.33
2023-04-16T04:06:37.444Z,12.80
2023-04-16T04:09:04.326Z,12.47
2023-04-16T04:11:31.153Z,12.47
2023-04-16T04:13:57.894Z,12.17
2023-04-16T04:16:24.808Z,11.53
2023-04-16T04:18:51.526Z,10.50
2023-04-16T04:21:18.438Z,12.37
2023-04-16T04:23:45.322Z,12.07
2023-04-16T04:26:12.089Z,10.90
2023-04-16T04:28:38.894Z,11.80
2023-04-16T04:31:06.147Z,10.77
2023-04-16T04:33:33.051Z,10.50
2023-04-16T04:35:59.811Z,10.13
2023-04-16T04:38:26.567Z,10.80
2023-04-16T04:40:53.486Z,11.07
2023-04-16T04:43:20.857Z,13.07
2023-04-16T04:45:49.076Z,11.33
2023-04-16T04:48:16.176Z,11.93
2023-04-16T04:50:44.642Z,11.10
2023-04-16T04:53:11.515Z,12.60
2023-04-16T04:55:39.196Z,11.90
2023-04-16T04:58:07.067Z,11.83
2023-04-16T05:00:34.744Z,12.33
2023-04-16T05:03:06.905Z,12.60
2023-04-16T05:05:33.730Z,12.00
2023-04-16T05:08:00.622Z,12.30
2023-04-16T05:10:27.520Z,13.50
2023-04-16T05:12:54.251Z,12.33
2023-04-16T05:15:21.057Z,13.27
2023-04-16T05:17:47.854Z,13.40
2023-04-16T05:20:14.673Z,13.20
2023-04-16T05:22:41.414Z,12.60
2023-04-16T05:25:08.513Z,14.00
2023-04-16T05:27:35.453Z,12.70
2023-04-16T05:30:02.604Z,12.00
2023-04-16T05:32:29.406Z,12.40
2023-04-16T05:34:56.116Z,14.10
2023-04-16T05:37:22.904Z,15.17
2023-04-16T05:39:49.674Z,15.10
2023-04-16T05:42:16.549Z,15.30
2023-04-16T05:44:43.232Z,15.60
2023-04-16T05:47:10.021Z,16.83
2023-04-16T05:49:39.892Z,17.13
2023-04-16T05:52:07.475Z,17.67
2023-04-16T05:54:34.222Z,17.03
2023-04-16T05:57:01.893Z,20.10
2023-04-16T05:59:29.335Z,19.13
2023-04-16T06:01:56.156Z,20.60
2023-04-16T06:04:22.985Z,21.23
2023-04-16T06:06:49.890Z,21.13
2023-04-16T06:09:16.654Z,20.63
2023-04-16T06:11:43.501Z,20.27
2023-04-16T06:14:10.883Z,21.00
2023-04-16T06:16:37.671Z,24.20
2023-04-16T06:19:04.514Z,22.30
2023-04-16T06:21:31.804Z,22.07
2023-04-16T06:23:58.551Z,20.87
2023-04-16T06:26:25.721Z,19.77
2023-04-16T06:28:52.500Z,24.53
2023-04-16T06:31:19.274Z,20.40
2023-04-16T06:33:45.969Z,21.90
2023-04-16T06:36:12.695Z,19.97
2023-04-16T06:38:39.439Z,20.13
2023-04-16T06:41:06.200Z,22.27
2023-04-16T06:43:33.857Z,19.83
2023-04-16T06:46:00.699Z,22.17
2023-04-16T06:48:27.725Z,22.47
2023-04-16T06:50:55.717Z,23.13
2023-04-16T06:53:23.027Z,20.93
2023-04-16T06:55:49.803Z,18.50
2023-04-16T06:58:16.466Z,21.27
2023-04-16T07:00:43.305Z,22.40
2023-04-16T07:03:10.445Z,23.70
2023-04-16T07:05:37.374Z,22.50
2023-04-16T07:08:04.186Z,21.90
2023-04-16T07:10:31.744Z,21.30
2023-04-16T07:12:58.706Z,21.10
2023-04-16T07:15:25.474Z,21.20
2023-04-16T07:17:52.184Z,21.57
2023-04-16T07:20:18.892Z,20.80
2023-04-16T07:22:45.806Z,22.53
2023-04-16T07:25:12.495Z,20.20
2023-04-16T07:27:39.251Z,22.30
2023-04-16T07:30:06.661Z,21.60
2023-04-16T07:32:33.420Z,22.20
2023-04-16T07:35:00.387Z,22.17
2023-04-16T07:37:27.136Z,19.37
2023-04-16T07:39:56.242Z,19.73
2023-04-16T07:42:24.166Z,21.47
2023-04-16T07:44:50.818Z,20.23
2023-04-16T07:47:17.646Z,20.67
2023-04-16T07:49:44.451Z,19.17
2023-04-16T07:52:11.212Z,20.50
2023-04-16T07:54:37.972Z,19.93
2023-04-16T07:57:04.653Z,19.00
2023-04-16T07:59:31.420Z,18.93
2023-04-16T08:01:58.351Z,19.13
2023-04-16T08:04:26.420Z,19.70
2023-04-16T08:06:53.892Z,19.20
2023-04-16T08:09:22.852Z,18.27
2023-04-16T08:11:50.087Z,19.70
2023-04-16T08:14:17.503Z,17.37
2023-04-16T08:16:44.492Z,19.10
2023-04-16T08:19:11.343Z,18.00
2023-04-16T08:21:38.298Z,18.73
2023-04-16T08:24:05.116Z,17.43
2023-04-16T08:26:31.793Z,19.63
2023-04-16T08:28:58.553Z,17.67
2023-04-16T08:31:25.564Z,18.10
2023-04-16T08:33:52.454Z,17.30
2023-04-16T08:36:19.208Z,17.83
2023-04-16T08:38:45.991Z,16.77
2023-04-16T08:41:14.066Z,17.67
2023-04-16T08:43:45.126Z,16.43
2023-04-16T08:46:12.623Z,18.13
2023-04-16T08:48:42.801Z,17.00
2023-04-16T08:51:11.190Z,17.23
2023-04-16T08:54:07.489Z,14.57
2023-04-16T08:56:37.432Z,17.70
2023-04-16T08:59:05.610Z,16.37
2023-04-16T09:01:36.519Z,16.60
2023-04-16T09:04:04.504Z,16.90
2023-04-16T09:06:32.775Z,16.87
2023-04-16T09:09:00.508Z,15.90
2023-04-16T09:11:27.839Z,16.43
2023-04-16T09:13:54.642Z,15.03
2023-04-16T09:16:21.711Z,17.50
2023-04-16T09:18:48.561Z,16.33
2023-04-16T09:21:15.975Z,16.47
2023-04-16T09:23:43.503Z,15.40
2023-04-16T09:26:10.335Z,16.33
2023-04-16T09:28:40.526Z,15.33
2023-04-16T09:31:14.678Z,16.33
2023-04-16T09:33:42.947Z,15.43
2023-04-16T09:36:10.083Z,17.43
2023-04-16T09:38:50.350Z,16.70
2023-04-16T09:41:17.800Z,18.00
2023-04-16T09:43:59.347Z,15.60
2023-04-16T09:46:36.178Z,16.07
2023-04-16T09:49:10.609Z,16.47
2023-04-16T09:51:47.108Z,15.67
2023-04-16T09:54:13.956Z,16.83
2023-04-16T09:56:45.884Z,17.67
2023-04-16T09:59:19.575Z,16.10
2023-04-16T10:01:47.133Z,17.33
2023-04-16T10:04:14.137Z,17.13
2023-04-16T10:06:41.152Z,16.73
2023-04-16T10:09:09.582Z,17.40
2023-04-16T10:11:37.186Z,16.40
2023-04-16T10:14:04.046Z,16.60
2023-04-16T10:16:31.326Z,18.43
2023-04-16T10:18:59.203Z,17.30
2023-04-16T10:21:33.758Z,18.70
2023-04-16T10:24:02.936Z,20.10
2023-04-16T10:26:31.128Z,17.20
2023-04-16T10:28:59.345Z,18.17
2023-04-16T10:31:27.415Z,17.80
2023-04-16T10:33:55.133Z,19.20
2023-04-16T10:36:26.630Z,16.60
2023-04-16T10:38:58.465Z,17.13
2023-04-16T10:41:26.790Z,17.80
2023-04-16T10:44:03.253Z,17.43
2023-04-16T10:46:34.731Z,16.23
2023-04-16T10:49:03.570Z,16.63
2023-04-16T10:51:33.168Z,15.30
2023-04-16T10:54:19.476Z,16.30
2023-04-16T10:56:47.324Z,17.60
2023-04-16T10:59:18.154Z,15.33
2023-04-16T11:01:46.699Z,16.13
2023-04-16T11:04:19.850Z,15.80
2023-04-16T11:07:07.082Z,14.33
2023-04-16T11:09:59.866Z,14.83
2023-04-16T11:12:34.359Z,13.67
2023-04-16T11:15:11.828Z,14.07
2023-04-16T11:17:50.613Z,10.93
2023-04-16T11:20:22.800Z,11.47
2023-04-16T11:22:54.714Z,11.73
2023-04-16T11:25:22.229Z,12.10
2023-04-16T11:27:49.805Z,11.60
2023-04-16T11:30:18.561Z,12.20
2023-04-16T11:32:46.758Z,11.50
2023-04-16T11:35:16.006Z,10.83
2023-04-16T11:37:43.262Z,10.87
2023-04-16T11:40:10.456Z,10.70
2023-04-16T11:42:40.593Z,10.60
2023-04-16T11:45:09.358Z,10.40
2023-04-16T11:47:52.479Z,10.30
2023-04-16T11:50:26.113Z,9.43
2023-04-16T11:52:58.067Z,10.30
2023-04-16T11:55:25.470Z,9.30
2023-04-16T11:57:52.796Z,8.73
2023-04-16T12:00:23.718Z,8.90
2023-04-16T12:02:53.550Z,8.13
2023-04-16T12:05:35.873Z,9.37
2023-04-16T12:08:10.226Z,9.00
2023-04-16T12:10:59.643Z,8.07
2023-04-16T12:13:26.449Z,7.80
2023-04-16T12:15:54.991Z,8.63
2023-04-16T12:18:23.796Z,8.90
2023-04-16T12:20:53.546Z,7.23
2023-04-16T12:23:28.688Z,7.60
2023-04-16T12:25:56.379Z,8.03
2023-04-16T12:28:31.322Z,8.00
2023-04-16T12:30:58.212Z,7.60
2023-04-16T12:33:25.409Z,8.23
2023-04-16T12:35:52.542Z,7.33
2023-04-16T12:38:19.816Z,7.57
2023-04-16T12:40:47.574Z,6.20
2023-04-16T12:43:14.327Z,7.57
2023-04-16T12:45:41.671Z,6.30
2023-04-16T12:48:08.650Z,7.10
2023-04-16T12:50:35.561Z,6.30
2023-04-16T12:53:02.352Z,5.90
2023-04-16T12:55:29.080Z,6.67
2023-04-16T12:57:56.015Z,7.03
2023-04-16T13:00:23.106Z,7.80
2023-04-16T13:02:50.046Z,6.80
2023-04-16T13:05:19.227Z,6.97
2023-04-16T13:07:46.357Z,6.03
2023-04-16T13:10:13.848Z,7.90
2023-04-16T13:12:41.057Z,7.23
2023-04-16T13:15:08.550Z,8.33
2023-04-16T13:17:35.420Z,7.00
2023-04-16T13:20:02.226Z,6.90
2023-04-16T13:22:28.965Z,7.43
2023-04-16T13:24:55.829Z,7.00
2023-04-16T13:27:22.593Z,7.13
2023-04-16T13:29:49.380Z,8.27
2023-04-16T13:32:16.479Z,9.13
2023-04-16T13:34:43.375Z,8.00
2023-04-16T13:37:10.217Z,7.87
2023-04-16T13:39:37.030Z,8.40
2023-04-16T13:42:03.825Z,8.27
2023-04-16T13:44:30.730Z,8.60
2023-04-16T13:46:57.661Z,8.67
2023-04-16T13:49:24.444Z,7.10
2023-04-16T13:51:51.214Z,9.10
2023-04-16T13:54:18.024Z,8.40
2023-04-16T13:56:44.906Z,8.67
2023-04-16T13:59:11.885Z,9.47
2023-04-16T14:01:38.853Z,8.20
2023-04-16T14:04:07.118Z,8.50
2023-04-16T14:06:35.873Z,8.87
2023-04-16T14:09:02.668Z,8.10
2023-04-16T14:11:29.626Z,9.17
2023-04-16T14:13:56.496Z,8.50
2023-04-16T14:16:23.463Z,9.13
2023-04-16T14:18:52.048Z,9.07
2023-04-16T14:21:19.314Z,9.40
2023-04-16T14:23:46.781Z,9.27
2023-04-16T14:26:14.290Z,9.50
2023-04-16T14:28:41.679Z,9.40
2023-04-16T14:31:08.601Z,9.30
2023-04-16T14:33:35.470Z,10.17
2023-04-16T14:36:03.958Z,10.47
2023-04-16T14:38:31.306Z,9.53
2023-04-16T14:40:58.175Z,10.23
2023-04-16T14:43:25.030Z,10.17
2023-04-16T14:45:52.833Z,10.07
2023-04-16T14:48:19.761Z,12.00
2023-04-16T14:50:47.154Z,10.90
2023-04-16T14:53:14.348Z,12.23
2023-04-16T14:55:41.118Z,11.23
2023-04-16T14:58:07.984Z,12.40
2023-04-16T15:00:35.661Z,12.13
2023-04-16T15:03:02.763Z,10.97
2023-04-16T15:05:31.570Z,12.30
2023-04-16T15:07:58.456Z,14.63
2023-04-16T15:10:25.303Z,14.87
2023-04-16T15:12:52.208Z,15.50
2023-04-16T15:15:21.386Z,14.70
2023-04-16T15:17:48.378Z,16.20
2023-04-16T15:20:15.714Z,14.63
2023-04-16T15:22:42.576Z,14.93
2023-04-16T15:25:09.748Z,14.50
2023-04-16T15:27:36.711Z,17.53
2023-04-16T15:30:03.852Z,15.10
2023-04-16T15:32:31.432Z,15.90
2023-04-16T15:34:58.378Z,18.07
2023-04-16T15:37:25.279Z,16.10
2023-04-16T15:39:52.041Z,17.40
2023-04-16T15:42:18.846Z,16.50
2023-04-16T15:44:45.688Z,16.60
2023-04-16T15:47:12.532Z,16.77
2023-04-16T15:49:39.313Z,15.93
2023-04-16T15:52:06.313Z,16.00
2023-04-16T15:54:33.175Z,15.23
2023-04-16T15:57:00.504Z,15.70
2023-04-16T15:59:27.251Z,15.67
2023-04-16T16:01:54.480Z,19.63
2023-04-16T16:04:26.622Z,16.50
2023-04-16T16:06:53.973Z,18.87
2023-04-16T16:09:25.748Z,19.00
2023-04-16T16:11:54.442Z,18.63
2023-04-16T16:14:22.359Z,17.77
2023-04-16T16:16:49.584Z,16.40
2023-04-16T16:19:19.003Z,18.03
2023-04-16T16:21:45.843Z,17.67
2023-04-16T16:24:12.678Z,18.87
2023-04-16T16:26:39.743Z,18.30
2023-04-16T16:29:07.197Z,20.60
2023-04-16T16:31:34.108Z,18.57
2023-04-16T16:34:01.301Z,17.50
2023-04-16T16:36:29.728Z,20.23
2023-04-16T16:38:57.061Z,24.40
2023-04-16T16:41:23.915Z,11.03
2023-04-16T16:43:51.062Z,11.30
2023-04-16T16:46:17.883Z,21.53
2023-04-16T16:48:44.935Z,22.27
2023-04-16T16:51:11.822Z,20.70
2023-04-16T16:53:38.817Z,20.30
2023-04-16T16:56:06.282Z,21.37
2023-04-16T16:58:33.085Z,19.10
2023-04-16T17:01:00.111Z,23.67
2023-04-16T17:03:26.979Z,19.40
2023-04-16T17:05:53.768Z,21.50
2023-04-16T17:08:20.608Z,19.77
2023-04-16T17:10:47.893Z,20.90
2023-04-16T17:13:19.600Z,20.57
2023-04-16T17:15:47.094Z,21.10
2023-04-16T17:18:14.131Z,22.27
2023-04-16T17:20:41.003Z,22.40
2023-04-16T17:23:07.836Z,20.60
2023-04-16T17:25:34.673Z,22.27
2023-04-16T17:28:01.524Z,22.90
2023-04-16T17:30:28.468Z,23.70
2023-04-16T17:32:55.470Z,18.73
2023-04-16T17:35:22.472Z,21.10
2023-04-16T17:37:49.616Z,22.63
2023-04-16T17:40:18.335Z,23.77
2023-04-16T17:42:45.521Z,23.00
2023-04-16T17:45:12.561Z,23.87
2023-04-16T17:47:39.586Z,25.00
2023-04-16T17:50:07.441Z,22.30
2023-04-16T17:52:34.435Z,25.30
2023-04-16T17:55:01.735Z,24.07
2023-04-16T17:57:29.097Z,23.87
2023-04-16T17:59:56.416Z,23.33
2023-04-16T18:02:23.898Z,20.87
2023-04-16T18:04:51.624Z,21.90
2023-04-16T18:07:19.437Z,22.83
2023-04-16T18:09:46.298Z,20.40
2023-04-16T18:12:13.616Z,22.40
2023-04-16T18:14:41.365Z,23.70
2023-04-16T18:17:08.226Z,22.07
2023-04-16T18:19:35.770Z,23.73
2023-04-16T18:22:03.171Z,24.00
2023-04-16T18:24:30.308Z,25.07
2023-04-16T18:26:58.531Z,19.63
2023-04-16T18:29:26.451Z,22.23
2023-04-16T18:31:55.159Z,20.60
2023-04-16T18:34:23.013Z,21.03
2023-04-16T18:36:50.007Z,21.50
2023-04-16T18:39:17.394Z,20.63
2023-04-16T18:41:47.875Z,22.40
2023-04-16T18:44:16.299Z,22.60
2023-04-16T18:46:43.563Z,21.00
2023-04-16T18:49:10.905Z,21.10
2023-04-16T18:51:38.067Z,19.80
2023-04-16T18:54:05.358Z,20.60
2023-04-16T18:56:32.998Z,20.87
2023-04-16T18:59:00.133Z,18.80
2023-04-16T19:01:27.513Z,22.20
2023-04-16T19:03:54.639Z,21.77
2023-04-16T19:06:22.097Z,21.83
2023-04-16T19:08:49.177Z,20.70
2023-04-16T19:11:17.024Z,21.07
2023-04-16T19:13:44.093Z,19.00
2023-04-16T19:16:12.538Z,20.00
2023-04-16T19:18:39.696Z,21.60
2023-04-16T19:21:07.409Z,19.40
2023-04-16T19:23:34.663Z,20.40
2023-04-16T19:26:01.750Z,19.47
2023-04-16T19:28:28.965Z,19.10
2023-04-16T19:30:56.396Z,20.77
2023-04-16T19:33:23.609Z,21.27
2023-04-16T19:35:53.567Z,18.50
2023-04-16T19:38:20.832Z,19.67
2023-04-16T19:40:49.331Z,19.97
2023-04-16T19:43:16.374Z,19.80
2023-04-16T19:45:52.672Z,19.57
2023-04-16T19:48:22.764Z,20.17
2023-04-16T19:50:49.813Z,18.40
2023-04-16T19:53:19.271Z,19.77
2023-04-16T19:55:47.440Z,19.90
2023-04-16T19:58:15.114Z,19.43
2023-04-16T20:00:42.559Z,19.90
2023-04-16T20:03:09.976Z,21.33
2023-04-16T20:05:37.028Z,20.00
2023-04-16T20:08:04.195Z,20.93
2023-04-16T20:10:34.151Z,19.60
2023-04-16T20:13:04.970Z,18.80
2023-04-16T20:15:31.900Z,22.53
2023-04-16T20:17:58.973Z,31.93
2023-04-16T20:20:26.036Z,24.50
2023-04-16T20:22:53.118Z,20.97
2023-04-16T20:25:20.592Z,22.40
2023-04-16T20:27:48.390Z,24.20
2023-04-16T20:30:15.513Z,23.60
2023-04-16T20:32:42.579Z,28.57
2023-04-16T20:35:12.104Z,30.80
2023-04-16T20:37:39.158Z,29.80
2023-04-16T20:40:08.632Z,28.03
2023-04-16T20:42:35.644Z,26.00
2023-04-16T20:45:02.474Z,35.63
2023-04-16T20:47:29.268Z,38.33
2023-04-16T20:49:56.167Z,37.70
2023-04-16T20:52:23.013Z,33.60
2023-04-16T20:54:52.015Z,38.20
2023-04-16T20:57:19.125Z,41.80
2023-04-16T20:59:46.136Z,42.80
2023-04-16T21:02:13.924Z,35.57
2023-04-16T21:04:40.959Z,27.83
2023-04-16T21:07:07.921Z,41.40
2023-04-16T21:09:34.674Z,35.97
2023-04-16T21:12:01.799Z,25.50
2023-04-16T21:14:28.618Z,19.17
2023-04-16T21:16:55.605Z,18.50
2023-04-16T21:19:22.546Z,14.17
2023-04-16T21:21:49.385Z,17.07
2023-04-16T21:24:16.173Z,15.93
2023-04-16T21:26:42.935Z,15.90
2023-04-16T21:29:09.881Z,15.27
2023-04-16T21:31:36.878Z,15.57
2023-04-16T21:34:03.649Z,16.27
2023-04-16T21:36:32.091Z,15.83
2023-04-16T21:38:58.884Z,16.07
2023-04-16T21:41:25.687Z,16.77
2023-04-16T21:43:52.597Z,15.33
2023-04-16T21:46:19.531Z,16.00
2023-04-16T21:48:48.505Z,16.30
2023-04-16T21:51:15.727Z,15.13
2023-04-16T21:53:42.461Z,15.50
2023-04-16T21:56:09.323Z,15.90
2023-04-16T21:58:36.872Z,16.93
2023-04-16T22:01:03.828Z,15.80
2023-04-16T22:03:31.161Z,16.57
2023-04-16T22:06:01.585Z,16.07
2023-04-16T22:08:29.536Z,16.97
2023-04-16T22:11:00.206Z,16.60
2023-04-16T22:13:29.882Z,17.63
2023-04-16T22:15:57.718Z,15.90
2023-04-16T22:18:25.805Z,16.33
2023-04-16T22:20:55.993Z,17.83
2023-04-16T22:23:23.850Z,18.70
2023-04-16T22:25:51.741Z,17.67
2023-04-16T22:28:18.481Z,17.23
2023-04-16T22:30:45.284Z,16.73
2023-04-16T22:33:12.129Z,18.13
2023-04-16T22:35:38.956Z,15.10
2023-04-16T22:38:05.811Z,16.97
2023-04-16T22:40:32.623Z,16.90
2023-04-16T22:42:59.378Z,17.13
2023-04-16T22:45:27.242Z,16.17
2023-04-16T22:47:54.105Z,16.23
2023-04-16T22:50:21.001Z,14.90
2023-04-16T22:52:47.700Z,17.03
2023-04-16T22:55:14.436Z,14.90
2023-04-16T22:57:41.326Z,16.30
2023-04-16T23:00:15.464Z,16.67
2023-04-16T23:02:42.560Z,15.33
2023-04-16T23:05:09.529Z,15.30
2023-04-16T23:07:36.443Z,16.37
2023-04-16T23:10:03.181Z,16.43
2023-04-16T23:12:29.877Z,16.00
2023-04-16T23:14:56.940Z,16.57
2023-04-16T23:17:23.780Z,15.70
2023-04-16T23:19:53.003Z,16.77
2023-04-16T23:22:19.764Z,16.47
2023-04-16T23:24:46.479Z,16.50
2023-04-16T23:27:13.273Z,15.33
2023-04-16T23:29:39.973Z,16.80
2023-04-16T23:32:06.843Z,14.33
2023-04-16T23:34:33.587Z,15.43
2023-04-16T23:37:00.316Z,14.87
2023-04-16T23:39:27.281Z,15.93
2023-04-16T23:41:54.001Z,15.30
2023-04-16T23:44:20.745Z,16.00
2023-04-16T23:46:47.579Z,15.97
2023-04-16T23:49:14.309Z,15.40
2023-04-16T23:51:41.210Z,14.50
2023-04-16T23:54:08.025Z,15.03
2023-04-16T23:56:34.721Z,15.73
2023-04-16T23:59:01.546Z,14.90
